sensor_id;sensor_type;location;lat;lon;timestamp;P1;durP1;ratioP1;P2;durP2;ratioP2
57317;SDS011;43157;50.982;18.132;2023-05-20T00:00:31;23.60;;;12.40;;
57317;SDS011;43157;50.982;18.132;2023-05-20T00:02:56;24.10;;;11.80;;
57317;SDS011;43157;50.982;18.132;2023-05-20T00:05:24;25.00;;;12.60;;
57317;SDS011;43157;50.982;18.132;2023-05-20T00:07:49;24.20;;;12.40;;
57317;SDS011;43157;50.982;18.132;2023-05-20T00:10:16;23.30;;;11.90;;
57317;SDS011;43157;50.982;18.132;2023-05-20T00:12:42;23.50;;;12.10;;
57317;SDS011;43157;50.982;18.132;2023-05-20T00:15:08;21.60;;;11.80;;
57317;SDS011;43157;50.982;18.132;2023-05-20T00:17:36;24.80;;;12.60;;
57317;SDS011;43157;50.982;18.132;2023-05-20T00:20:02;22.10;;;11.90;;
57317;SDS011;43157;50.982;18.132;2023-05-20T00:22:30;24.70;;;11.80;;
57317;SDS011;43157;50.982;18.132;2023-05-20T00:24:56;24.30;;;11.80;;
57317;SDS011;43157;50.982;18.132;2023-05-20T00:27:21;22.10;;;11.20;;
57317;SDS011;43157;50.982;18.132;2023-05-20T00:29:47;26.60;;;13.00;;
57317;SDS011;43157;50.982;18.132;2023-05-20T00:32:12;25.30;;;12.30;;
57317;SDS011;43157;50.982;18.132;2023-05-20T00:34:39;24.60;;;12.20;;
57317;SDS011;43157;50.982;18.132;2023-05-20T00:37:04;27.40;;;14.60;;
57317;SDS011;43157;50.982;18.132;2023-05-20T00:39:30;25.70;;;13.80;;
57317;SDS011;43157;50.982;18.132;2023-05-20T00:41:55;27.60;;;13.40;;
57317;SDS011;43157;50.982;18.132;2023-05-20T00:44:25;27.60;;;13.10;;
57317;SDS011;43157;50.982;18.132;2023-05-20T00:46:51;27.00;;;13.20;;
57317;SDS011;43157;50.982;18.132;2023-05-20T00:49:17;26.20;;;13.50;;
57317;SDS011;43157;50.982;18.132;2023-05-20T00:51:43;24.70;;;13.30;;
57317;SDS011;43157;50.982;18.132;2023-05-20T00:54:09;24.30;;;12.20;;
57317;SDS011;43157;50.982;18.132;2023-05-20T00:56:36;29.00;;;14.10;;
57317;SDS011;43157;50.982;18.132;2023-05-20T00:59:01;27.10;;;13.10;;
57317;SDS011;43157;50.982;18.132;2023-05-20T01:01:27;26.10;;;13.30;;
57317;SDS011;43157;50.982;18.132;2023-05-20T01:03:53;25.40;;;12.90;;
57317;SDS011;43157;50.982;18.132;2023-05-20T01:06:18;27.50;;;13.50;;
57317;SDS011;43157;50.982;18.132;2023-05-20T01:08:44;28.40;;;14.30;;
57317;SDS011;43157;50.982;18.132;2023-05-20T01:11:14;29.20;;;14.50;;
57317;SDS011;43157;50.982;18.132;2023-05-20T01:13:46;28.30;;;14.40;;
57317;SDS011;43157;50.982;18.132;2023-05-20T01:16:16;26.80;;;14.80;;
57317;SDS011;43157;50.982;18.132;2023-05-20T01:18:42;28.90;;;14.60;;
57317;SDS011;43157;50.982;18.132;2023-05-20T01:21:10;28.70;;;14.70;;
57317;SDS011;43157;50.982;18.132;2023-05-20T01:23:37;28.00;;;14.50;;
57317;SDS011;43157;50.982;18.132;2023-05-20T01:26:04;30.50;;;14.50;;
57317;SDS011;43157;50.982;18.132;2023-05-20T01:28:33;27.50;;;14.90;;
57317;SDS011;43157;50.982;18.132;2023-05-20T01:31:01;25.70;;;13.60;;
57317;SDS011;43157;50.982;18.132;2023-05-20T01:33:30;28.40;;;14.40;;
57317;SDS011;43157;50.982;18.132;2023-05-20T01:35:56;28.90;;;14.60;;
57317;SDS011;43157;50.982;18.132;2023-05-20T01:38:23;28.50;;;14.50;;
57317;SDS011;43157;50.982;18.132;2023-05-20T01:40:49;26.40;;;13.80;;
57317;SDS011;43157;50.982;18.132;2023-05-20T01:43:16;29.80;;;13.90;;
57317;SDS011;43157;50.982;18.132;2023-05-20T01:45:42;28.50;;;14.70;;
57317;SDS011;43157;50.982;18.132;2023-05-20T01:48:09;28.80;;;13.80;;
57317;SDS011;43157;50.982;18.132;2023-05-20T01:50:36;29.00;;;14.00;;
57317;SDS011;43157;50.982;18.132;2023-05-20T01:53:02;32.70;;;14.40;;
57317;SDS011;43157;50.982;18.132;2023-05-20T01:55:28;30.90;;;15.50;;
57317;SDS011;43157;50.982;18.132;2023-05-20T01:57:53;30.10;;;15.30;;
57317;SDS011;43157;50.982;18.132;2023-05-20T02:00:19;33.00;;;15.50;;
57317;SDS011;43157;50.982;18.132;2023-05-20T02:02:45;31.00;;;14.80;;
57317;SDS011;43157;50.982;18.132;2023-05-20T02:05:11;32.40;;;16.80;;
57317;SDS011;43157;50.982;18.132;2023-05-20T02:07:37;31.70;;;16.60;;
57317;SDS011;43157;50.982;18.132;2023-05-20T02:10:03;33.80;;;16.70;;
57317;SDS011;43157;50.982;18.132;2023-05-20T02:12:29;31.80;;;17.30;;
57317;SDS011;43157;50.982;18.132;2023-05-20T02:14:54;33.80;;;15.50;;
57317;SDS011;43157;50.982;18.132;2023-05-20T02:17:20;35.10;;;17.70;;
57317;SDS011;43157;50.982;18.132;2023-05-20T02:19:48;34.50;;;16.40;;
57317;SDS011;43157;50.982;18.132;2023-05-20T02:22:14;32.50;;;16.40;;
57317;SDS011;43157;50.982;18.132;2023-05-20T02:24:40;34.00;;;17.40;;
57317;SDS011;43157;50.982;18.132;2023-05-20T02:27:07;35.40;;;17.00;;
57317;SDS011;43157;50.982;18.132;2023-05-20T02:29:33;33.10;;;16.10;;
57317;SDS011;43157;50.982;18.132;2023-05-20T02:31:59;33.90;;;17.20;;
57317;SDS011;43157;50.982;18.132;2023-05-20T02:34:26;34.90;;;16.50;;
57317;SDS011;43157;50.982;18.132;2023-05-20T02:36:51;32.20;;;17.10;;
57317;SDS011;43157;50.982;18.132;2023-05-20T02:39:18;32.10;;;15.80;;
57317;SDS011;43157;50.982;18.132;2023-05-20T02:41:43;33.00;;;15.20;;
57317;SDS011;43157;50.982;18.132;2023-05-20T02:44:09;30.30;;;16.70;;
57317;SDS011;43157;50.982;18.132;2023-05-20T02:46:34;29.50;;;14.80;;
57317;SDS011;43157;50.982;18.132;2023-05-20T02:49:00;28.60;;;14.80;;
57317;SDS011;43157;50.982;18.132;2023-05-20T02:51:25;30.50;;;15.20;;
57317;SDS011;43157;50.982;18.132;2023-05-20T02:53:51;30.10;;;15.80;;
57317;SDS011;43157;50.982;18.132;2023-05-20T02:56:17;28.00;;;14.60;;
57317;SDS011;43157;50.982;18.132;2023-05-20T02:58:46;29.40;;;15.50;;
57317;SDS011;43157;50.982;18.132;2023-05-20T03:01:12;30.80;;;15.30;;
57317;SDS011;43157;50.982;18.132;2023-05-20T03:03:38;29.30;;;15.80;;
57317;SDS011;43157;50.982;18.132;2023-05-20T03:06:05;28.80;;;14.10;;
57317;SDS011;43157;50.982;18.132;2023-05-20T03:08:34;28.00;;;13.90;;
57317;SDS011;43157;50.982;18.132;2023-05-20T03:11:00;27.20;;;14.20;;
57317;SDS011;43157;50.982;18.132;2023-05-20T03:13:26;29.30;;;14.60;;
57317;SDS011;43157;50.982;18.132;2023-05-20T03:15:52;29.80;;;16.00;;
57317;SDS011;43157;50.982;18.132;2023-05-20T03:18:18;30.80;;;16.30;;
57317;SDS011;43157;50.982;18.132;2023-05-20T03:20:44;30.00;;;14.90;;
57317;SDS011;43157;50.982;18.132;2023-05-20T03:23:10;32.10;;;16.10;;
57317;SDS011;43157;50.982;18.132;2023-05-20T03:25:36;29.70;;;15.90;;
57317;SDS011;43157;50.982;18.132;2023-05-20T03:28:03;29.90;;;15.40;;
57317;SDS011;43157;50.982;18.132;2023-05-20T03:30:29;26.30;;;14.30;;
57317;SDS011;43157;50.982;18.132;2023-05-20T03:32:55;26.50;;;13.00;;
57317;SDS011;43157;50.982;18.132;2023-05-20T03:35:24;24.50;;;12.60;;
57317;SDS011;43157;50.982;18.132;2023-05-20T03:37:50;24.90;;;13.50;;
57317;SDS011;43157;50.982;18.132;2023-05-20T03:40:17;24.50;;;13.60;;
57317;SDS011;43157;50.982;18.132;2023-05-20T03:42:44;22.70;;;11.90;;
57317;SDS011;43157;50.982;18.132;2023-05-20T03:45:10;23.60;;;12.40;;
57317;SDS011;43157;50.982;18.132;2023-05-20T03:47:36;26.80;;;13.90;;
57317;SDS011;43157;50.982;18.132;2023-05-20T03:50:02;24.00;;;12.80;;
57317;SDS011;43157;50.982;18.132;2023-05-20T03:52:28;25.00;;;12.80;;
57317;SDS011;43157;50.982;18.132;2023-05-20T03:54:53;22.70;;;11.60;;
57317;SDS011;43157;50.982;18.132;2023-05-20T03:57:19;21.40;;;10.90;;
57317;SDS011;43157;50.982;18.132;2023-05-20T03:59:44;21.50;;;11.00;;
57317;SDS011;43157;50.982;18.132;2023-05-20T04:14:04;18.40;;;10.50;;
57317;SDS011;43157;50.982;18.132;2023-05-20T04:16:29;19.70;;;10.40;;
57317;SDS011;43157;50.982;18.132;2023-05-20T04:18:55;19.20;;;9.60;;
57317;SDS011;43157;50.982;18.132;2023-05-20T04:21:23;19.00;;;9.60;;
57317;SDS011;43157;50.982;18.132;2023-05-20T04:23:49;18.80;;;9.80;;
57317;SDS011;43157;50.982;18.132;2023-05-20T04:26:14;20.80;;;9.50;;
57317;SDS011;43157;50.982;18.132;2023-05-20T04:28:40;19.80;;;10.00;;
57317;SDS011;43157;50.982;18.132;2023-05-20T04:31:06;19.50;;;9.40;;
57317;SDS011;43157;50.982;18.132;2023-05-20T04:33:32;18.00;;;10.10;;
57317;SDS011;43157;50.982;18.132;2023-05-20T04:36:02;17.00;;;8.90;;
57317;SDS011;43157;50.982;18.132;2023-05-20T04:38:29;17.70;;;9.90;;
57317;SDS011;43157;50.982;18.132;2023-05-20T04:40:59;18.70;;;9.00;;
57317;SDS011;43157;50.982;18.132;2023-05-20T04:43:26;20.30;;;9.60;;
57317;SDS011;43157;50.982;18.132;2023-05-20T04:45:56;19.30;;;8.80;;
57317;SDS011;43157;50.982;18.132;2023-05-20T04:48:22;19.40;;;10.00;;
57317;SDS011;43157;50.982;18.132;2023-05-20T04:50:48;18.50;;;9.10;;
57317;SDS011;43157;50.982;18.132;2023-05-20T04:53:17;20.10;;;9.80;;
57317;SDS011;43157;50.982;18.132;2023-05-20T04:55:46;19.00;;;9.80;;
57317;SDS011;43157;50.982;18.132;2023-05-20T04:58:12;21.00;;;10.40;;
57317;SDS011;43157;50.982;18.132;2023-05-20T05:00:42;18.40;;;8.90;;
57317;SDS011;43157;50.982;18.132;2023-05-20T05:03:08;18.00;;;9.10;;
57317;SDS011;43157;50.982;18.132;2023-05-20T05:05:37;16.30;;;7.30;;
57317;SDS011;43157;50.982;18.132;2023-05-20T05:08:04;18.40;;;7.70;;
57317;SDS011;43157;50.982;18.132;2023-05-20T05:10:31;17.70;;;9.40;;
57317;SDS011;43157;50.982;18.132;2023-05-20T05:12:57;18.70;;;9.80;;
57317;SDS011;43157;50.982;18.132;2023-05-20T05:15:22;15.70;;;8.60;;
57317;SDS011;43157;50.982;18.132;2023-05-20T05:17:48;16.60;;;7.70;;
57317;SDS011;43157;50.982;18.132;2023-05-20T05:20:14;14.10;;;7.70;;
57317;SDS011;43157;50.982;18.132;2023-05-20T05:22:40;15.80;;;7.30;;
57317;SDS011;43157;50.982;18.132;2023-05-20T05:25:06;14.40;;;6.80;;
57317;SDS011;43157;50.982;18.132;2023-05-20T05:27:33;16.30;;;7.30;;
57317;SDS011;43157;50.982;18.132;2023-05-20T05:29:59;14.70;;;7.50;;
57317;SDS011;43157;50.982;18.132;2023-05-20T05:32:25;13.90;;;6.90;;
57317;SDS011;43157;50.982;18.132;2023-05-20T05:34:51;14.20;;;6.50;;
57317;SDS011;43157;50.982;18.132;2023-05-20T05:37:16;14.40;;;6.40;;
57317;SDS011;43157;50.982;18.132;2023-05-20T05:39:43;14.90;;;7.40;;
57317;SDS011;43157;50.982;18.132;2023-05-20T05:42:09;13.80;;;6.80;;
57317;SDS011;43157;50.982;18.132;2023-05-20T05:44:35;15.20;;;7.00;;
57317;SDS011;43157;50.982;18.132;2023-05-20T05:47:00;15.80;;;7.70;;
57317;SDS011;43157;50.982;18.132;2023-05-20T05:49:26;14.00;;;6.90;;
57317;SDS011;43157;50.982;18.132;2023-05-20T05:51:52;17.10;;;6.70;;
57317;SDS011;43157;50.982;18.132;2023-05-20T05:54:17;16.10;;;6.50;;
57317;SDS011;43157;50.982;18.132;2023-05-20T05:56:45;13.50;;;6.70;;
57317;SDS011;43157;50.982;18.132;2023-05-20T05:59:11;15.60;;;7.30;;
57317;SDS011;43157;50.982;18.132;2023-05-20T06:01:37;14.40;;;7.20;;
57317;SDS011;43157;50.982;18.132;2023-05-20T06:04:02;13.30;;;6.50;;
57317;SDS011;43157;50.982;18.132;2023-05-20T06:06:29;14.30;;;7.20;;
57317;SDS011;43157;50.982;18.132;2023-05-20T06:08:55;13.80;;;6.40;;
57317;SDS011;43157;50.982;18.132;2023-05-20T06:11:22;14.00;;;7.20;;
57317;SDS011;43157;50.982;18.132;2023-05-20T06:13:48;16.60;;;7.50;;
57317;SDS011;43157;50.982;18.132;2023-05-20T06:16:15;16.30;;;7.80;;
57317;SDS011;43157;50.982;18.132;2023-05-20T06:18:41;15.20;;;7.20;;
57317;SDS011;43157;50.982;18.132;2023-05-20T06:21:07;15.50;;;7.80;;
57317;SDS011;43157;50.982;18.132;2023-05-20T06:23:33;15.40;;;7.80;;
57317;SDS011;43157;50.982;18.132;2023-05-20T06:25:59;13.50;;;7.10;;
57317;SDS011;43157;50.982;18.132;2023-05-20T06:28:25;14.60;;;7.10;;
57317;SDS011;43157;50.982;18.132;2023-05-20T06:30:54;14.00;;;6.70;;
57317;SDS011;43157;50.982;18.132;2023-05-20T06:33:22;16.50;;;7.00;;
57317;SDS011;43157;50.982;18.132;2023-05-20T06:35:57;14.20;;;6.90;;
57317;SDS011;43157;50.982;18.132;2023-05-20T06:38:23;14.50;;;6.90;;
57317;SDS011;43157;50.982;18.132;2023-05-20T06:40:48;14.10;;;6.90;;
57317;SDS011;43157;50.982;18.132;2023-05-20T06:43:15;13.50;;;6.50;;
57317;SDS011;43157;50.982;18.132;2023-05-20T06:45:41;13.20;;;6.60;;
57317;SDS011;43157;50.982;18.132;2023-05-20T06:48:07;14.30;;;6.60;;
57317;SDS011;43157;50.982;18.132;2023-05-20T06:50:33;14.50;;;6.60;;
57317;SDS011;43157;50.982;18.132;2023-05-20T06:52:59;15.40;;;6.40;;
57317;SDS011;43157;50.982;18.132;2023-05-20T06:55:25;13.90;;;6.70;;
57317;SDS011;43157;50.982;18.132;2023-05-20T06:57:51;13.30;;;6.00;;
57317;SDS011;43157;50.982;18.132;2023-05-20T07:00:17;14.70;;;6.30;;
57317;SDS011;43157;50.982;18.132;2023-05-20T07:02:43;15.80;;;6.70;;
57317;SDS011;43157;50.982;18.132;2023-05-20T07:05:08;13.80;;;6.20;;
57317;SDS011;43157;50.982;18.132;2023-05-20T07:07:34;15.50;;;6.70;;
57317;SDS011;43157;50.982;18.132;2023-05-20T07:10:00;14.40;;;6.80;;
57317;SDS011;43157;50.982;18.132;2023-05-20T07:12:26;16.00;;;7.30;;
57317;SDS011;43157;50.982;18.132;2023-05-20T07:14:51;14.70;;;7.20;;
57317;SDS011;43157;50.982;18.132;2023-05-20T07:17:17;16.00;;;7.00;;
57317;SDS011;43157;50.982;18.132;2023-05-20T07:19:43;14.00;;;6.30;;
57317;SDS011;43157;50.982;18.132;2023-05-20T07:22:08;15.70;;;6.70;;
57317;SDS011;43157;50.982;18.132;2023-05-20T07:24:34;16.60;;;7.80;;
57317;SDS011;43157;50.982;18.132;2023-05-20T07:27:00;15.50;;;7.60;;
57317;SDS011;43157;50.982;18.132;2023-05-20T07:29:26;16.10;;;8.10;;
57317;SDS011;43157;50.982;18.132;2023-05-20T07:31:52;15.50;;;7.80;;
57317;SDS011;43157;50.982;18.132;2023-05-20T07:34:18;17.00;;;7.70;;
57317;SDS011;43157;50.982;18.132;2023-05-20T07:36:43;16.00;;;7.80;;
57317;SDS011;43157;50.982;18.132;2023-05-20T07:39:09;16.30;;;8.20;;
57317;SDS011;43157;50.982;18.132;2023-05-20T07:41:36;16.50;;;8.30;;
57317;SDS011;43157;50.982;18.132;2023-05-20T07:44:05;15.90;;;7.60;;
57317;SDS011;43157;50.982;18.132;2023-05-20T07:46:36;17.00;;;8.50;;
57317;SDS011;43157;50.982;18.132;2023-05-20T07:49:02;21.10;;;8.50;;
57317;SDS011;43157;50.982;18.132;2023-05-20T07:51:28;19.20;;;8.90;;
57317;SDS011;43157;50.982;18.132;2023-05-20T07:53:55;18.80;;;8.60;;
57317;SDS011;43157;50.982;18.132;2023-05-20T07:56:21;18.50;;;8.70;;
57317;SDS011;43157;50.982;18.132;2023-05-20T07:58:53;19.80;;;9.70;;
57317;SDS011;43157;50.982;18.132;2023-05-20T08:01:20;19.20;;;9.30;;
57317;SDS011;43157;50.982;18.132;2023-05-20T08:03:46;20.10;;;9.50;;
57317;SDS011;43157;50.982;18.132;2023-05-20T08:06:11;18.70;;;9.10;;
57317;SDS011;43157;50.982;18.132;2023-05-20T08:08:37;19.30;;;9.30;;
57317;SDS011;43157;50.982;18.132;2023-05-20T08:11:06;21.90;;;9.80;;
57317;SDS011;43157;50.982;18.132;2023-05-20T08:13:31;19.50;;;10.30;;
57317;SDS011;43157;50.982;18.132;2023-05-20T08:15:57;19.90;;;9.20;;
57317;SDS011;43157;50.982;18.132;2023-05-20T08:18:23;20.60;;;10.40;;
57317;SDS011;43157;50.982;18.132;2023-05-20T08:20:49;23.00;;;11.30;;
57317;SDS011;43157;50.982;18.132;2023-05-20T08:23:15;20.00;;;10.80;;
57317;SDS011;43157;50.982;18.132;2023-05-20T08:25:41;20.40;;;10.00;;
57317;SDS011;43157;50.982;18.132;2023-05-20T08:28:06;21.60;;;11.20;;
57317;SDS011;43157;50.982;18.132;2023-05-20T08:30:32;20.80;;;11.00;;
57317;SDS011;43157;50.982;18.132;2023-05-20T08:32:58;23.80;;;12.40;;
57317;SDS011;43157;50.982;18.132;2023-05-20T08:35:24;20.80;;;10.00;;
57317;SDS011;43157;50.982;18.132;2023-05-20T08:37:50;23.00;;;12.10;;
57317;SDS011;43157;50.982;18.132;2023-05-20T08:40:20;24.80;;;13.20;;
57317;SDS011;43157;50.982;18.132;2023-05-20T08:42:47;38.50;;;22.20;;
57317;SDS011;43157;50.982;18.132;2023-05-20T08:45:14;37.40;;;17.90;;
57317;SDS011;43157;50.982;18.132;2023-05-20T08:47:43;32.50;;;15.90;;
57317;SDS011;43157;50.982;18.132;2023-05-20T08:50:09;28.70;;;14.80;;
57317;SDS011;43157;50.982;18.132;2023-05-20T08:52:45;29.20;;;13.60;;
57317;SDS011;43157;50.982;18.132;2023-05-20T08:58:04;28.40;;;14.40;;
57317;SDS011;43157;50.982;18.132;2023-05-20T09:00:29;25.90;;;12.70;;
57317;SDS011;43157;50.982;18.132;2023-05-20T09:02:57;26.80;;;13.60;;
57317;SDS011;43157;50.982;18.132;2023-05-20T09:05:23;25.40;;;13.20;;
57317;SDS011;43157;50.982;18.132;2023-05-20T09:07:49;28.00;;;13.90;;
57317;SDS011;43157;50.982;18.132;2023-05-20T09:10:15;25.60;;;13.20;;
57317;SDS011;43157;50.982;18.132;2023-05-20T09:12:41;26.80;;;14.70;;
57317;SDS011;43157;50.982;18.132;2023-05-20T09:15:06;26.90;;;14.30;;
57317;SDS011;43157;50.982;18.132;2023-05-20T09:17:36;26.60;;;14.50;;
57317;SDS011;43157;50.982;18.132;2023-05-20T09:20:06;28.30;;;14.60;;
57317;SDS011;43157;50.982;18.132;2023-05-20T09:22:33;24.90;;;13.30;;
57317;SDS011;43157;50.982;18.132;2023-05-20T09:24:59;30.50;;;14.50;;
57317;SDS011;43157;50.982;18.132;2023-05-20T09:27:25;26.80;;;13.90;;
57317;SDS011;43157;50.982;18.132;2023-05-20T09:29:51;30.00;;;15.60;;
57317;SDS011;43157;50.982;18.132;2023-05-20T09:32:17;31.50;;;18.10;;
57317;SDS011;43157;50.982;18.132;2023-05-20T09:34:46;25.70;;;14.70;;
57317;SDS011;43157;50.982;18.132;2023-05-20T09:37:13;26.40;;;14.90;;
57317;SDS011;43157;50.982;18.132;2023-05-20T09:39:47;27.00;;;14.00;;
57317;SDS011;43157;50.982;18.132;2023-05-20T09:42:17;26.10;;;13.30;;
57317;SDS011;43157;50.982;18.132;2023-05-20T09:44:48;25.00;;;13.90;;
57317;SDS011;43157;50.982;18.132;2023-05-20T09:47:14;28.50;;;13.90;;
57317;SDS011;43157;50.982;18.132;2023-05-20T09:49:41;26.40;;;13.10;;
57317;SDS011;43157;50.982;18.132;2023-05-20T09:52:07;25.00;;;12.70;;
57317;SDS011;43157;50.982;18.132;2023-05-20T09:54:33;24.70;;;13.10;;
57317;SDS011;43157;50.982;18.132;2023-05-20T09:57:00;24.60;;;13.10;;
57317;SDS011;43157;50.982;18.132;2023-05-20T09:59:26;24.60;;;13.60;;
57317;SDS011;43157;50.982;18.132;2023-05-20T10:01:54;23.10;;;14.20;;
57317;SDS011;43157;50.982;18.132;2023-05-20T10:04:20;26.10;;;15.70;;
57317;SDS011;43157;50.982;18.132;2023-05-20T10:06:55;29.10;;;15.90;;
57317;SDS011;43157;50.982;18.132;2023-05-20T10:09:53;28.10;;;15.20;;
57317;SDS011;43157;50.982;18.132;2023-05-20T10:12:25;25.90;;;14.60;;
57317;SDS011;43157;50.982;18.132;2023-05-20T10:17:55;24.20;;;14.50;;
57317;SDS011;43157;50.982;18.132;2023-05-20T10:20:23;26.40;;;13.60;;
57317;SDS011;43157;50.982;18.132;2023-05-20T10:22:55;25.60;;;14.60;;
57317;SDS011;43157;50.982;18.132;2023-05-20T10:25:27;23.20;;;14.30;;
57317;SDS011;43157;50.982;18.132;2023-05-20T10:28:03;24.30;;;13.40;;
57317;SDS011;43157;50.982;18.132;2023-05-20T10:30:32;24.30;;;13.90;;
57317;SDS011;43157;50.982;18.132;2023-05-20T10:33:01;27.90;;;12.10;;
57317;SDS011;43157;50.982;18.132;2023-05-20T10:35:29;24.50;;;13.10;;
57317;SDS011;43157;50.982;18.132;2023-05-20T10:38:06;27.40;;;14.70;;
57317;SDS011;43157;50.982;18.132;2023-05-20T10:40:33;24.50;;;13.30;;
57317;SDS011;43157;50.982;18.132;2023-05-20T10:43:07;24.10;;;13.30;;
57317;SDS011;43157;50.982;18.132;2023-05-20T10:45:35;21.80;;;12.10;;
57317;SDS011;43157;50.982;18.132;2023-05-20T10:50:54;23.70;;;15.00;;
57317;SDS011;43157;50.982;18.132;2023-05-20T10:53:21;25.40;;;14.00;;
57317;SDS011;43157;50.982;18.132;2023-05-20T10:55:49;21.80;;;13.00;;
57317;SDS011;43157;50.982;18.132;2023-05-20T10:58:16;25.50;;;14.10;;
57317;SDS011;43157;50.982;18.132;2023-05-20T11:00:42;24.00;;;13.10;;
57317;SDS011;43157;50.982;18.132;2023-05-20T11:03:08;27.40;;;13.90;;
57317;SDS011;43157;50.982;18.132;2023-05-20T11:05:34;24.30;;;11.50;;
57317;SDS011;43157;50.982;18.132;2023-05-20T11:08:00;23.00;;;13.70;;
57317;SDS011;43157;50.982;18.132;2023-05-20T11:10:27;22.30;;;12.80;;
57317;SDS011;43157;50.982;18.132;2023-05-20T11:12:53;24.40;;;13.30;;
57317;SDS011;43157;50.982;18.132;2023-05-20T11:15:19;23.40;;;15.00;;
57317;SDS011;43157;50.982;18.132;2023-05-20T11:17:54;23.20;;;13.40;;
57317;SDS011;43157;50.982;18.132;2023-05-20T11:20:21;21.50;;;12.60;;
57317;SDS011;43157;50.982;18.132;2023-05-20T11:22:52;23.00;;;14.10;;
57317;SDS011;43157;50.982;18.132;2023-05-20T11:25:19;22.10;;;12.90;;
57317;SDS011;43157;50.982;18.132;2023-05-20T11:27:45;22.10;;;13.00;;
57317;SDS011;43157;50.982;18.132;2023-05-20T11:30:12;22.80;;;12.30;;
57317;SDS011;43157;50.982;18.132;2023-05-20T11:32:41;21.20;;;12.50;;
57317;SDS011;43157;50.982;18.132;2023-05-20T11:35:24;25.50;;;13.30;;
57317;SDS011;43157;50.982;18.132;2023-05-20T11:40:28;21.50;;;12.10;;
57317;SDS011;43157;50.982;18.132;2023-05-20T11:42:55;19.00;;;10.80;;
57317;SDS011;43157;50.982;18.132;2023-05-20T11:45:22;23.20;;;13.40;;
57317;SDS011;43157;50.982;18.132;2023-05-20T11:48:01;21.20;;;12.80;;
57317;SDS011;43157;50.982;18.132;2023-05-20T11:50:27;21.40;;;12.70;;
57317;SDS011;43157;50.982;18.132;2023-05-20T11:52:59;22.60;;;12.50;;
57317;SDS011;43157;50.982;18.132;2023-05-20T11:55:27;20.70;;;12.40;;
57317;SDS011;43157;50.982;18.132;2023-05-20T11:57:53;22.70;;;12.90;;
57317;SDS011;43157;50.982;18.132;2023-05-20T12:00:21;22.60;;;13.30;;
57317;SDS011;43157;50.982;18.132;2023-05-20T12:02:48;22.90;;;12.30;;
57317;SDS011;43157;50.982;18.132;2023-05-20T12:05:13;21.90;;;13.60;;
57317;SDS011;43157;50.982;18.132;2023-05-20T12:07:40;20.30;;;12.60;;
57317;SDS011;43157;50.982;18.132;2023-05-20T12:10:06;21.70;;;12.80;;
57317;SDS011;43157;50.982;18.132;2023-05-20T12:12:32;19.00;;;12.30;;
57317;SDS011;43157;50.982;18.132;2023-05-20T12:15:00;21.60;;;12.10;;
57317;SDS011;43157;50.982;18.132;2023-05-20T12:17:27;21.30;;;12.40;;
57317;SDS011;43157;50.982;18.132;2023-05-20T12:19:52;17.50;;;10.10;;
57317;SDS011;43157;50.982;18.132;2023-05-20T12:22:18;22.70;;;12.60;;
57317;SDS011;43157;50.982;18.132;2023-05-20T12:24:43;19.60;;;11.70;;
57317;SDS011;43157;50.982;18.132;2023-05-20T12:27:09;19.40;;;10.70;;
57317;SDS011;43157;50.982;18.132;2023-05-20T12:29:34;17.40;;;10.00;;
57317;SDS011;43157;50.982;18.132;2023-05-20T12:32:01;20.70;;;13.10;;
57317;SDS011;43157;50.982;18.132;2023-05-20T12:34:26;19.10;;;12.30;;
57317;SDS011;43157;50.982;18.132;2023-05-20T12:36:52;19.80;;;12.70;;
57317;SDS011;43157;50.982;18.132;2023-05-20T12:39:18;19.90;;;13.40;;
57317;SDS011;43157;50.982;18.132;2023-05-20T12:41:43;17.70;;;11.50;;
57317;SDS011;43157;50.982;18.132;2023-05-20T12:44:10;18.60;;;12.10;;
57317;SDS011;43157;50.982;18.132;2023-05-20T12:46:36;22.00;;;11.90;;
57317;SDS011;43157;50.982;18.132;2023-05-20T12:49:02;18.00;;;9.50;;
57317;SDS011;43157;50.982;18.132;2023-05-20T12:51:28;20.10;;;11.20;;
57317;SDS011;43157;50.982;18.132;2023-05-20T12:53:53;18.00;;;10.80;;
57317;SDS011;43157;50.982;18.132;2023-05-20T12:56:19;20.70;;;12.00;;
57317;SDS011;43157;50.982;18.132;2023-05-20T12:58:45;18.00;;;11.70;;
57317;SDS011;43157;50.982;18.132;2023-05-20T13:01:11;19.20;;;12.20;;
57317;SDS011;43157;50.982;18.132;2023-05-20T13:03:36;18.60;;;10.60;;
57317;SDS011;43157;50.982;18.132;2023-05-20T13:06:02;17.60;;;10.90;;
57317;SDS011;43157;50.982;18.132;2023-05-20T13:08:28;20.30;;;11.00;;
57317;SDS011;43157;50.982;18.132;2023-05-20T13:10:54;18.40;;;10.80;;
57317;SDS011;43157;50.982;18.132;2023-05-20T13:13:20;19.00;;;11.90;;
57317;SDS011;43157;50.982;18.132;2023-05-20T13:15:49;16.90;;;10.70;;
57317;SDS011;43157;50.982;18.132;2023-05-20T13:18:15;18.10;;;11.60;;
57317;SDS011;43157;50.982;18.132;2023-05-20T13:20:41;20.80;;;12.40;;
57317;SDS011;43157;50.982;18.132;2023-05-20T13:23:07;19.70;;;11.80;;
57317;SDS011;43157;50.982;18.132;2023-05-20T13:25:33;17.80;;;11.50;;
57317;SDS011;43157;50.982;18.132;2023-05-20T13:27:59;20.20;;;12.00;;
57317;SDS011;43157;50.982;18.132;2023-05-20T13:30:25;18.40;;;12.40;;
57317;SDS011;43157;50.982;18.132;2023-05-20T13:32:52;19.80;;;12.80;;
57317;SDS011;43157;50.982;18.132;2023-05-20T13:35:18;20.90;;;13.00;;
57317;SDS011;43157;50.982;18.132;2023-05-20T13:37:44;19.00;;;11.90;;
57317;SDS011;43157;50.982;18.132;2023-05-20T13:40:09;22.40;;;12.90;;
57317;SDS011;43157;50.982;18.132;2023-05-20T13:42:36;23.40;;;13.10;;
57317;SDS011;43157;50.982;18.132;2023-05-20T13:45:02;21.10;;;14.00;;
57317;SDS011;43157;50.982;18.132;2023-05-20T13:47:29;25.20;;;12.40;;
57317;SDS011;43157;50.982;18.132;2023-05-20T13:49:54;19.20;;;11.90;;
57317;SDS011;43157;50.982;18.132;2023-05-20T13:52:20;19.10;;;12.20;;
57317;SDS011;43157;50.982;18.132;2023-05-20T13:54:45;21.10;;;13.70;;
57317;SDS011;43157;50.982;18.132;2023-05-20T13:57:13;20.50;;;12.70;;
57317;SDS011;43157;50.982;18.132;2023-05-20T13:59:39;19.90;;;12.80;;
57317;SDS011;43157;50.982;18.132;2023-05-20T14:02:05;24.00;;;13.50;;
57317;SDS011;43157;50.982;18.132;2023-05-20T14:04:31;21.80;;;12.30;;
57317;SDS011;43157;50.982;18.132;2023-05-20T14:07:02;18.30;;;10.40;;
57317;SDS011;43157;50.982;18.132;2023-05-20T14:09:31;20.30;;;12.80;;
57317;SDS011;43157;50.982;18.132;2023-05-20T14:11:57;20.80;;;13.00;;
57317;SDS011;43157;50.982;18.132;2023-05-20T14:14:22;22.30;;;13.70;;
57317;SDS011;43157;50.982;18.132;2023-05-20T14:16:47;19.80;;;11.20;;
57317;SDS011;43157;50.982;18.132;2023-05-20T14:19:13;20.10;;;12.50;;
57317;SDS011;43157;50.982;18.132;2023-05-20T14:21:39;20.20;;;12.40;;
57317;SDS011;43157;50.982;18.132;2023-05-20T14:24:04;18.70;;;11.00;;
57317;SDS011;43157;50.982;18.132;2023-05-20T14:26:31;20.50;;;11.50;;
57317;SDS011;43157;50.982;18.132;2023-05-20T14:28:58;18.40;;;9.80;;
57317;SDS011;43157;50.982;18.132;2023-05-20T14:31:25;19.20;;;11.80;;
57317;SDS011;43157;50.982;18.132;2023-05-20T14:33:50;24.10;;;11.50;;